Time,TemperatureF,DewpointF,PressureIn,WindDirection,WindDirectionDegrees,WindSpeedMPH,WindSpeedGustMPH,Humidity,HourlyPrecipIn,Conditions,Clouds,dailyrainin,SoftwareType,DateUTC
2013-03-10 00:01:00,35.0,31.0,-100.00,SSE,150,2.0,6.0,84,0.00,,,-99.99,,2013-03-10 06:01:00,
2013-03-10 00:11:00,35.0,31.0,-100.00,SSE,150,2.0,6.0,84,0.00,,,-99.99,,2013-03-10 06:11:00,
2013-03-10 00:22:00,35.0,31.0,-100.00,SSE,150,2.0,6.0,84,0.00,,,-99.99,,2013-03-10 06:22:00,
2013-03-10 00:52:00,35.0,31.0,-100.00,SSE,155,2.0,4.0,84,0.00,,,-99.99,,2013-03-10 06:52:00,
2013-03-10 01:02:00,35.0,31.0,-100.00,SSE,155,2.0,4.0,84,0.00,,,-99.99,,2013-03-10 07:02:00,
2013-03-10 01:11:00,35.0,31.0,-100.00,SSE,155,2.0,4.0,84,0.00,,,-99.99,,2013-03-10 07:11:00,
2013-03-10 01:21:00,35.0,31.0,-100.00,SSE,155,2.0,4.0,84,0.00,,,-99.99,,2013-03-10 07:21:00,
2013-03-10 01:52:00,35.0,31.0,-100.00,SSE,150,1.0,3.0,84,0.00,,,-99.99,,2013-03-10 07:52:00,
2013-03-10 03:01:00,35.0,31.0,-100.00,SSE,150,1.0,3.0,84,0.00,,,-99.99,,2013-03-10 08:01:00,
2013-03-10 03:11:00,35.0,31.0,-100.00,SSE,150,1.0,3.0,84,0.00,,,-99.99,,2013-03-10 08:11:00,
2013-03-10 03:21:00,35.0,31.0,-100.00,SSE,150,1.0,3.0,84,0.00,,,-99.99,,2013-03-10 08:21:00,
2013-03-10 03:31:00,35.0,30.0,-100.00,East,95,1.0,2.0,84,0.00,,,-99.99,,2013-03-10 08:31:00,
2013-03-10 03:52:00,35.0,30.0,-100.00,East,95,1.0,2.0,84,0.00,,,-99.99,,2013-03-10 08:52:00,
2013-03-10 04:01:00,35.0,30.0,-100.00,East,95,1.0,2.0,84,0.00,,,-99.99,,2013-03-10 09:01:00,
2013-03-10 04:11:00,35.0,30.0,-100.00,East,95,1.0,2.0,84,0.00,,,-99.99,,2013-03-10 09:11:00,
2013-03-10 04:21:00,35.0,30.0,-100.00,East,95,1.0,2.0,84,0.00,,,-99.99,,2013-03-10 09:21:00,
2013-03-10 04:52:00,34.0,30.0,-100.00,ESE,120,1.0,3.0,84,0.00,,,-99.99,,2013-03-10 09:52:00,
2013-03-10 05:01:00,34.0,30.0,-100.00,ESE,120,1.0,3.0,84,0.00,,,-99.99,,2013-03-10 10:01:00,
2013-03-10 05:11:00,34.0,30.0,-100.00,ESE,120,1.0,3.0,84,0.00,,,-99.99,,2013-03-10 10:11:00,
2013-03-10 05:21:00,34.0,30.0,-100.00,ESE,120,1.0,3.0,84,0.00,,,-99.99,,2013-03-10 10:21:00,
2013-03-10 05:52:00,34.0,30.0,-100.00,East,95,0.0,0.0,84,0.00,,,-99.99,,2013-03-10 10:52:00,
2013-03-10 06:01:00,34.0,30.0,-100.00,East,95,0.0,0.0,84,0.00,,,-99.99,,2013-03-10 11:01:00,
2013-03-10 06:12:00,34.0,30.0,-100.00,East,95,0.0,0.0,84,0.00,,,-99.99,,2013-03-10 11:12:00,
2013-03-10 06:21:00,34.0,30.0,-100.00,East,95,0.0,0.0,84,0.00,,,-99.99,,2013-03-10 11:21:00,
2013-03-10 06:52:00,34.0,30.0,-100.00,East,95,3.0,6.0,84,0.00,,,-99.99,,2013-03-10 11:52:00,
2013-03-10 07:01:00,34.0,30.0,-100.00,East,95,3.0,6.0,84,0.00,,,-99.99,,2013-03-10 12:01:00,
2013-03-10 07:11:00,34.0,30.0,-100.00,East,95,3.0,6.0,84,0.00,,,-99.99,,2013-03-10 12:11:00,
2013-03-10 07:21:00,34.0,30.0,-100.00,East,95,3.0,6.0,84,0.00,,,-99.99,,2013-03-10 12:21:00,
2013-03-10 07:52:00,34.0,30.0,-100.00,North,0,2.0,4.0,84,0.00,,,-99.99,,2013-03-10 12:52:00,
2013-03-10 08:01:00,34.0,30.0,-100.00,North,0,2.0,4.0,84,0.00,,,-99.99,,2013-03-10 13:01:00,
2013-03-10 08:11:00,34.0,30.0,-100.00,North,0,2.0,4.0,84,0.00,,,-99.99,,2013-03-10 13:11:00,
2013-03-10 08:21:00,34.0,30.0,-100.00,North,0,2.0,4.0,84,0.00,,,-99.99,,2013-03-10 13:21:00,
2013-03-10 08:30:00,34.0,30.0,-100.00,North,5,3.0,6.0,84,0.00,,,-99.99,,2013-03-10 13:30:00,
2013-03-10 08:52:00,34.0,30.0,-100.00,North,5,3.0,6.0,84,0.00,,,-99.99,,2013-03-10 13:52:00,
2013-03-10 09:01:00,34.0,30.0,-100.00,North,5,3.0,6.0,84,0.00,,,-99.99,,2013-03-10 14:01:00,
2013-03-10 09:11:00,34.0,30.0,-100.00,North,5,3.0,6.0,84,0.00,,,-99.99,,2013-03-10 14:11:00,
2013-03-10 09:21:00,34.0,30.0,-100.00,North,5,3.0,6.0,84,0.00,,,-99.99,,2013-03-10 14:21:00,
2013-03-10 09:52:00,35.0,31.0,-100.00,North,0,2.0,5.0,84,0.14,,,-99.99,,2013-03-10 14:52:00,
2013-03-10 10:01:00,35.0,31.0,-100.00,North,0,2.0,5.0,84,0.14,,,-99.99,,2013-03-10 15:01:00,
2013-03-10 10:11:00,35.0,31.0,-100.00,North,0,2.0,5.0,84,0.14,,,-99.99,,2013-03-10 15:11:00,
2013-03-10 10:21:00,35.0,31.0,-100.00,North,0,2.0,5.0,84,0.14,,,-99.99,,2013-03-10 15:21:00,
2013-03-10 10:52:00,36.0,32.0,-100.00,North,10,4.0,11.0,84,0.00,,,-99.99,,2013-03-10 15:52:00,
2013-03-10 11:01:00,36.0,32.0,-100.00,North,10,4.0,11.0,84,0.00,,,-99.99,,2013-03-10 16:01:00,
2013-03-10 11:12:00,36.0,32.0,-100.00,North,10,4.0,11.0,84,0.00,,,-99.99,,2013-03-10 16:12:00,
2013-03-10 11:21:00,36.0,32.0,-100.00,North,10,4.0,11.0,84,0.00,,,-99.99,,2013-03-10 16:21:00,
2013-03-10 11:52:00,36.0,32.0,-100.00,NNE,20,3.0,7.0,84,0.01,,,-99.99,,2013-03-10 16:52:00,
2013-03-10 12:01:00,36.0,32.0,-100.00,NNE,20,3.0,7.0,84,0.01,,,-99.99,,2013-03-10 17:01:00,
2013-03-10 12:11:00,36.0,32.0,-100.00,NNE,20,3.0,7.0,84,0.01,,,-99.99,,2013-03-10 17:11:00,
2013-03-10 12:21:00,36.0,32.0,-100.00,NNE,20,3.0,7.0,84,0.01,,,-99.99,,2013-03-10 17:21:00,
2013-03-10 12:51:00,37.0,32.0,-100.00,NNE,25,4.0,10.0,84,0.00,,,-99.99,,2013-03-10 17:51:00,
2013-03-10 13:01:00,37.0,32.0,-100.00,NNE,25,4.0,10.0,84,0.00,,,-99.99,,2013-03-10 18:01:00,
2013-03-10 13:52:00,36.0,30.0,-100.00,ENE,60,6.0,17.0,78,0.00,,,-99.99,,2013-03-10 18:52:00,
2013-03-10 14:01:00,36.0,30.0,-100.00,ENE,60,6.0,17.0,78,0.00,,,-99.99,,2013-03-10 19:01:00,
2013-03-10 14:11:00,36.0,30.0,-100.00,ENE,60,6.0,17.0,78,0.00,,,-99.99,,2013-03-10 19:11:00,
2013-03-10 14:21:00,36.0,30.0,-100.00,ENE,60,6.0,17.0,78,0.00,,,-99.99,,2013-03-10 19:21:00,
2013-03-10 14:53:00,37.0,28.0,-100.00,NNE,20,6.0,12.0,69,0.00,,,-99.99,,2013-03-10 19:53:00,
2013-03-10 15:02:00,37.0,28.0,-100.00,NNE,20,6.0,12.0,69,0.00,,,-99.99,,2013-03-10 20:02:00,
2013-03-10 15:12:00,37.0,28.0,-100.00,NNE,20,6.0,12.0,69,0.00,,,-99.99,,2013-03-10 20:12:00,
2013-03-10 15:22:00,37.0,28.0,-100.00,NNE,20,6.0,12.0,69,0.00,,,-99.99,,2013-03-10 20:22:00,
2013-03-10 15:53:00,37.0,26.0,-100.00,ENE,60,3.0,13.0,64,0.00,,,-99.99,,2013-03-10 20:53:00,
2013-03-10 16:02:00,37.0,26.0,-100.00,ENE,60,3.0,13.0,64,0.00,,,-99.99,,2013-03-10 21:02:00,
2013-03-10 16:12:00,37.0,26.0,-100.00,ENE,60,3.0,13.0,64,0.00,,,-99.99,,2013-03-10 21:12:00,
2013-03-10 16:23:00,37.0,26.0,-100.00,ENE,60,3.0,13.0,64,0.00,,,-99.99,,2013-03-10 21:23:00,
2013-03-10 16:53:00,37.0,25.0,-100.00,NNE,20,4.0,14.0,62,0.00,,,-99.99,,2013-03-10 21:53:00,
2013-03-10 17:02:00,37.0,25.0,-100.00,NNE,20,4.0,14.0,62,0.00,,,-99.99,,2013-03-10 22:02:00,
2013-03-10 17:12:00,37.0,25.0,-100.00,NNE,20,4.0,14.0,62,0.00,,,-99.99,,2013-03-10 22:12:00,
2013-03-10 17:22:00,37.0,25.0,-100.00,NNE,20,4.0,14.0,62,0.00,,,-99.99,,2013-03-10 22:22:00,
2013-03-10 17:30:00,36.0,26.0,-100.00,NNE,20,2.0,17.0,66,0.14,,,-99.99,,2013-03-10 22:30:00,
2013-03-10 17:53:00,36.0,26.0,-100.00,NNE,20,2.0,17.0,66,0.14,,,-99.99,,2013-03-10 22:53:00,
2013-03-10 18:03:00,36.0,26.0,-100.00,NNE,20,2.0,17.0,66,0.14,,,-99.99,,2013-03-10 23:03:00,
2013-03-10 18:12:00,36.0,26.0,-100.00,NNE,20,2.0,17.0,66,0.14,,,-99.99,,2013-03-10 23:12:00,
2013-03-10 18:23:00,36.0,26.0,-100.00,NNE,20,2.0,17.0,66,0.14,,,-99.99,,2013-03-10 23:23:00,
2013-03-10 18:52:00,35.0,27.0,-100.00,ENE,75,4.0,10.0,75,0.04,,,-99.99,,2013-03-10 23:52:00,
2013-03-10 19:02:00,35.0,27.0,-100.00,ENE,75,4.0,10.0,75,0.04,,,-99.99,,2013-03-11 00:02:00,
2013-03-10 19:12:00,35.0,27.0,-100.00,ENE,75,4.0,10.0,75,0.04,,,-99.99,,2013-03-11 00:12:00,
2013-03-10 19:23:00,35.0,27.0,-100.00,ENE,75,4.0,10.0,75,0.04,,,-99.99,,2013-03-11 00:23:00,
2013-03-10 19:30:00,34.0,28.0,-100.00,ENE,60,4.0,9.0,78,0.10,,,-99.99,,2013-03-11 00:30:00,
2013-03-10 19:53:00,34.0,28.0,-100.00,ENE,60,4.0,9.0,78,0.10,,,-99.99,,2013-03-11 00:53:00,
2013-03-10 20:03:00,34.0,28.0,-100.00,ENE,60,4.0,9.0,78,0.10,,,-99.99,,2013-03-11 01:03:00,
2013-03-10 20:13:00,34.0,28.0,-100.00,ENE,60,4.0,9.0,78,0.10,,,-99.99,,2013-03-11 01:13:00,
2013-03-10 20:23:00,34.0,28.0,-100.00,ENE,60,4.0,9.0,78,0.10,,,-99.99,,2013-03-11 01:23:00,
2013-03-10 20:53:00,33.0,27.0,-100.00,ENE,60,6.0,15.0,79,0.52,,,-99.99,,2013-03-11 01:53:00,
2013-03-10 21:02:00,33.0,27.0,-100.00,ENE,60,6.0,15.0,79,0.52,,,-99.99,,2013-03-11 02:02:00,
2013-03-10 21:12:00,33.0,27.0,-100.00,ENE,60,6.0,15.0,79,0.52,,,-99.99,,2013-03-11 02:12:00,
2013-03-10 21:22:00,33.0,27.0,-100.00,ENE,60,6.0,15.0,79,0.52,,,-99.99,,2013-03-11 02:22:00,
2013-03-10 21:53:00,32.0,27.0,-100.00,ENE,75,5.0,18.0,81,0.04,,,-99.99,,2013-03-11 02:53:00,
2013-03-10 22:02:00,32.0,27.0,-100.00,ENE,75,5.0,18.0,81,0.04,,,-99.99,,2013-03-11 03:02:00,
2013-03-10 22:12:00,32.0,27.0,-100.00,ENE,75,5.0,18.0,81,0.04,,,-99.99,,2013-03-11 03:12:00,
2013-03-10 22:22:00,32.0,27.0,-100.00,ENE,75,5.0,18.0,81,0.04,,,-99.99,,2013-03-11 03:22:00,
2013-03-10 22:53:00,31.0,26.0,-100.00,NE,50,4.0,15.0,82,0.68,,,-99.99,,2013-03-11 03:53:00,
2013-03-10 23:02:00,31.0,26.0,-100.00,NE,50,4.0,15.0,82,0.68,,,-99.99,,2013-03-11 04:02:00,
2013-03-10 23:12:00,31.0,26.0,-100.00,NE,50,4.0,15.0,82,0.68,,,-99.99,,2013-03-11 04:12:00,
2013-03-10 23:22:00,31.0,26.0,-100.00,NE,50,4.0,15.0,82,0.68,,,-99.99,,2013-03-11 04:22:00,
2013-03-10 23:30:00,30.0,26.0,-100.00,NE,45,7.0,16.0,84,1.35,,,-99.99,,2013-03-11 04:30:00,
2013-03-10 23:53:00,30.0,26.0,-100.00,NE,45,7.0,16.0,84,1.35,,,-99.99,,2013-03-11 04:53:00,